createdAt,value
2019-02-07T00:00:21.599Z,8.67
2019-02-07T00:02:47.773Z,7.10
2019-02-07T00:05:14.196Z,7.87
2019-02-07T00:07:40.380Z,7.63
2019-02-07T00:10:11.711Z,7.47
2019-02-07T00:12:37.887Z,7.23
2019-02-07T00:15:08.678Z,6.53
2019-02-07T00:17:34.856Z,7.47
2019-02-07T00:20:02.211Z,6.97
2019-02-07T00:22:28.386Z,7.10
2019-02-07T00:24:54.618Z,7.33
2019-02-07T00:27:20.804Z,7.23
2019-02-07T00:29:46.968Z,7.10
2019-02-07T00:32:13.159Z,7.87
2019-02-07T00:34:39.349Z,7.30
2019-02-07T00:37:05.513Z,7.23
2019-02-07T00:39:31.702Z,8.03
2019-02-07T00:41:57.879Z,7.53
2019-02-07T00:44:24.051Z,7.70
2019-02-07T00:46:50.233Z,7.87
2019-02-07T00:49:16.476Z,8.43
2019-02-07T00:51:42.677Z,7.53
2019-02-07T00:54:09.073Z,7.97
2019-02-07T00:56:35.260Z,8.47
2019-02-07T00:59:01.673Z,8.03
2019-02-07T01:01:30.070Z,9.33
2019-02-07T01:03:56.238Z,7.97
2019-02-07T01:06:22.420Z,7.63
2019-02-07T01:08:49.013Z,7.93
2019-02-07T01:11:15.600Z,8.40
2019-02-07T01:13:42.215Z,8.17
2019-02-07T01:16:08.429Z,8.50
2019-02-07T01:18:34.593Z,8.97
2019-02-07T01:21:00.876Z,8.50
2019-02-07T01:23:27.115Z,8.13
2019-02-07T01:25:53.321Z,8.97
2019-02-07T01:28:19.476Z,9.23
2019-02-07T01:30:45.668Z,8.90
2019-02-07T01:33:11.940Z,9.00
2019-02-07T01:35:44.308Z,7.57
2019-02-07T01:38:10.491Z,8.77
2019-02-07T01:40:37.035Z,8.43
2019-02-07T01:43:03.259Z,9.57
2019-02-07T01:45:29.438Z,9.03
2019-02-07T01:47:55.596Z,8.23
2019-02-07T01:50:24.239Z,8.97
2019-02-07T01:52:50.904Z,8.57
2019-02-07T01:55:17.367Z,9.03
2019-02-07T01:57:43.906Z,8.53
2019-02-07T02:00:14.596Z,9.30
2019-02-07T02:02:41.193Z,9.23
2019-02-07T02:05:13.184Z,9.13
2019-02-07T02:07:39.641Z,8.77
2019-02-07T02:10:14.026Z,8.37
2019-02-07T02:12:40.323Z,7.93
2019-02-07T02:15:09.793Z,8.27
2019-02-07T02:17:36.169Z,9.37
2019-02-07T02:20:07.042Z,7.67
2019-02-07T02:22:33.254Z,9.63
2019-02-07T02:24:59.724Z,9.10
2019-02-07T02:27:26.280Z,8.67
2019-02-07T02:29:52.495Z,9.00
2019-02-07T02:32:18.736Z,8.17
2019-02-07T02:34:44.889Z,7.97
2019-02-07T02:37:11.661Z,8.17
2019-02-07T02:39:37.994Z,9.00
2019-02-07T02:42:04.356Z,8.20
2019-02-07T02:44:31.013Z,8.27
2019-02-07T02:46:57.182Z,8.00
2019-02-07T02:49:23.501Z,8.53
2019-02-07T02:51:49.685Z,8.47
2019-02-07T02:54:33.042Z,8.23
2019-02-07T02:56:59.232Z,7.67
2019-02-07T02:59:25.924Z,7.70
2019-02-07T03:01:56.741Z,8.43
2019-02-07T03:04:24.836Z,8.30
2019-02-07T03:06:52.903Z,7.90
2019-02-07T03:09:34.634Z,9.03
2019-02-07T03:12:18.147Z,8.10
2019-02-07T03:14:58.416Z,8.47
2019-02-07T03:17:29.522Z,7.87
2019-02-07T03:20:03.396Z,7.23
2019-02-07T03:22:31.525Z,8.60
2019-02-07T03:25:16.281Z,8.67
2019-02-07T03:28:01.269Z,8.40
2019-02-07T03:30:29.681Z,7.60
2019-02-07T03:33:14.209Z,7.90
2019-02-07T03:35:42.316Z,8.33
2019-02-07T03:38:10.426Z,7.90
2019-02-07T03:40:47.526Z,8.27
2019-02-07T03:43:15.600Z,8.13
2019-02-07T03:46:02.958Z,8.20
2019-02-07T03:48:33.166Z,8.03
2019-02-07T03:51:13.402Z,7.70
2019-02-07T03:53:44.152Z,7.90
2019-02-07T03:56:24.412Z,7.83
2019-02-07T03:59:01.573Z,7.13
2019-02-07T04:01:35.665Z,7.73
2019-02-07T04:04:03.875Z,7.73
2019-02-07T04:06:41.158Z,7.63
2019-02-07T04:09:12.812Z,7.60
2019-02-07T04:11:43.791Z,7.47
2019-02-07T04:14:17.889Z,8.47
2019-02-07T04:16:46.171Z,8.43
2019-02-07T04:19:30.804Z,8.13
2019-02-07T04:22:05.180Z,8.13
2019-02-07T04:24:39.396Z,8.10
2019-02-07T04:27:13.660Z,8.20
2019-02-07T04:29:53.990Z,8.73
2019-02-07T04:32:38.171Z,7.80
2019-02-07T04:35:07.187Z,8.33
2019-02-07T04:37:47.444Z,8.70
2019-02-07T04:40:24.539Z,8.37
2019-02-07T04:43:01.555Z,8.37
2019-02-07T04:45:29.653Z,7.60
2019-02-07T04:48:06.925Z,7.40
2019-02-07T04:50:35.121Z,8.93
2019-02-07T04:53:06.525Z,8.87
2019-02-07T04:55:35.805Z,7.97
2019-02-07T04:58:03.880Z,9.93
2019-02-07T05:00:31.951Z,8.33
2019-02-07T05:03:00.019Z,8.20
2019-02-07T05:05:40.404Z,8.73
2019-02-07T05:08:17.553Z,8.20
2019-02-07T05:14:17.771Z,7.93
2019-02-07T05:17:00.855Z,7.67
2019-02-07T05:19:32.270Z,7.93
2019-02-07T05:22:09.371Z,8.30
2019-02-07T05:24:37.473Z,8.30
2019-02-07T05:27:14.818Z,7.97
2019-02-07T05:29:45.988Z,7.80
2019-02-07T05:32:16.995Z,8.13
2019-02-07T05:34:47.790Z,7.43
2019-02-07T05:37:30.890Z,7.00
2019-02-07T05:39:59.282Z,7.80
2019-02-07T05:42:27.686Z,7.93
2019-02-07T05:45:01.520Z,8.13
2019-02-07T05:47:35.511Z,7.63
2019-02-07T05:50:14.649Z,8.50
2019-02-07T05:53:20.708Z,7.83
2019-02-07T05:56:05.754Z,7.73
2019-02-07T05:58:43.404Z,8.23
2019-02-07T06:01:11.686Z,7.60
2019-02-07T06:03:51.739Z,7.33
2019-02-07T06:06:19.832Z,7.73
2019-02-07T06:08:50.904Z,8.07
2019-02-07T06:11:34.295Z,7.90
2019-02-07T06:14:17.847Z,7.23
2019-02-07T06:16:46.057Z,7.50
2019-02-07T06:19:31.335Z,6.80
2019-02-07T06:22:08.889Z,7.53
2019-02-07T06:24:48.907Z,7.50
2019-02-07T06:27:33.735Z,7.80
2019-02-07T06:30:04.659Z,7.10
2019-02-07T06:32:41.773Z,8.13
2019-02-07T06:35:13.025Z,7.07
2019-02-07T06:37:42.612Z,7.83
2019-02-07T06:40:12.151Z,7.33
2019-02-07T06:42:46.277Z,6.90
2019-02-07T06:45:14.617Z,7.73
2019-02-07T06:47:59.258Z,7.47
2019-02-07T06:50:33.354Z,7.10
2019-02-07T06:53:05.028Z,7.23
2019-02-07T06:55:49.820Z,7.20
2019-02-07T06:58:27.044Z,7.27
2019-02-07T07:00:58.174Z,6.83
2019-02-07T07:03:26.295Z,6.37
2019-02-07T07:06:12.440Z,7.00
2019-02-07T07:08:46.307Z,7.23
2019-02-07T07:11:24.013Z,6.50
2019-02-07T07:13:58.227Z,6.63
2019-02-07T07:16:32.162Z,7.77
2019-02-07T07:19:15.198Z,7.07
2019-02-07T07:21:49.133Z,6.57
2019-02-07T07:24:19.998Z,6.70
2019-02-07T07:27:00.107Z,6.40
2019-02-07T07:29:34.452Z,6.60
2019-02-07T07:32:03.751Z,6.77
2019-02-07T07:34:48.443Z,6.77
2019-02-07T07:37:22.563Z,6.73
2019-02-07T07:40:07.437Z,6.50
2019-02-07T07:42:52.573Z,5.97
2019-02-07T07:45:32.875Z,6.20
2019-02-07T07:48:17.947Z,5.50
2019-02-07T07:50:58.038Z,5.77
2019-02-07T07:53:35.348Z,5.43
2019-02-07T07:56:03.424Z,5.80
2019-02-07T07:58:37.812Z,5.47
2019-02-07T08:01:06.159Z,6.00
2019-02-07T08:03:40.529Z,6.07
2019-02-07T08:06:11.583Z,6.30
2019-02-07T08:08:39.662Z,6.07
2019-02-07T08:11:22.777Z,5.83
2019-02-07T08:14:09.169Z,5.87
2019-02-07T08:16:37.595Z,6.07
2019-02-07T08:19:08.352Z,6.43
2019-02-07T08:21:36.431Z,6.30
2019-02-07T08:24:11.219Z,6.63
2019-02-07T08:26:55.983Z,6.17
2019-02-07T08:29:36.227Z,5.57
2019-02-07T08:32:14.181Z,5.77
2019-02-07T08:35:00.301Z,6.83
2019-02-07T08:37:45.299Z,7.00
2019-02-07T08:40:31.730Z,6.27
2019-02-07T08:43:05.548Z,6.63
2019-02-07T08:45:36.529Z,6.50
2019-02-07T08:48:09.708Z,6.63
2019-02-07T08:50:40.724Z,6.17
2019-02-07T08:53:15.407Z,5.93
2019-02-07T08:55:52.281Z,6.97
2019-02-07T08:58:23.359Z,6.83
2019-02-07T09:00:51.436Z,6.47
2019-02-07T09:03:34.831Z,6.07
2019-02-07T09:06:08.805Z,5.93
2019-02-07T09:08:42.752Z,5.97
2019-02-07T09:11:27.647Z,6.50
2019-02-07T09:13:55.797Z,7.63
2019-02-07T09:16:26.513Z,7.30
2019-02-07T09:18:54.617Z,6.93
2019-02-07T09:21:31.685Z,6.57
2019-02-07T09:24:02.935Z,7.30
2019-02-07T09:26:48.229Z,7.63
2019-02-07T09:29:32.161Z,8.30
2019-02-07T09:32:18.748Z,6.90
2019-02-07T09:35:03.587Z,7.37
2019-02-07T09:37:34.652Z,7.07
2019-02-07T09:40:05.967Z,9.63
2019-02-07T09:42:40.059Z,8.93
2019-02-07T09:45:30.734Z,7.20
2019-02-07T09:48:21.651Z,8.17
2019-02-07T09:50:45.810Z,8.10
2019-02-07T09:53:25.797Z,9.33
2019-02-07T09:56:02.635Z,8.90
2019-02-07T09:58:33.678Z,8.83
2019-02-07T10:01:07.990Z,7.53
2019-02-07T10:03:36.029Z,7.67
2019-02-07T10:06:10.445Z,9.13
2019-02-07T10:08:41.843Z,8.77
2019-02-07T10:11:12.982Z,7.40
2019-02-07T10:13:41.057Z,7.73
2019-02-07T10:16:18.248Z,8.40
2019-02-07T10:19:04.953Z,7.23
2019-02-07T10:21:47.999Z,7.20
2019-02-07T10:24:31.351Z,6.70
2019-02-07T10:27:00.522Z,6.77
2019-02-07T10:29:31.232Z,6.70
2019-02-07T10:32:02.417Z,8.17
2019-02-07T10:34:36.809Z,7.10
2019-02-07T10:37:14.005Z,7.30
2019-02-07T10:39:42.386Z,7.47
2019-02-07T10:42:26.401Z,6.77
2019-02-07T10:45:00.477Z,8.40
2019-02-07T10:47:45.372Z,7.27
2019-02-07T10:50:13.758Z,7.30
2019-02-07T10:52:56.917Z,6.00
2019-02-07T10:55:25.003Z,7.83
2019-02-07T10:58:09.914Z,5.67
2019-02-07T11:00:38.127Z,6.53
2019-02-07T11:03:39.671Z,5.43
2019-02-07T11:06:07.958Z,6.23
2019-02-07T11:08:54.292Z,6.53
2019-02-07T11:11:41.129Z,7.57
2019-02-07T11:14:09.214Z,6.90
2019-02-07T11:16:37.288Z,6.53
2019-02-07T11:19:08.015Z,6.63
2019-02-07T11:21:52.883Z,6.23
2019-02-07T11:24:39.733Z,6.23
2019-02-07T11:27:23.167Z,6.53
2019-02-07T11:30:07.818Z,6.60
2019-02-07T11:32:52.630Z,5.53
2019-02-07T11:35:37.194Z,6.83
2019-02-07T11:38:21.022Z,7.00
2019-02-07T11:40:54.930Z,7.07
2019-02-07T11:43:39.729Z,7.00
2019-02-07T11:46:08.125Z,6.63
2019-02-07T11:48:36.190Z,6.40
2019-02-07T11:51:21.504Z,6.20
2019-02-07T11:54:07.634Z,7.03
2019-02-07T11:56:35.730Z,5.83
2019-02-07T11:59:12.556Z,6.47
2019-02-07T12:01:49.674Z,6.33
2019-02-07T12:04:23.463Z,6.80
2019-02-07T12:06:54.263Z,6.20
2019-02-07T12:09:39.349Z,7.33
2019-02-07T12:12:13.406Z,8.20
2019-02-07T12:14:47.493Z,7.40
2019-02-07T12:17:15.603Z,6.10
2019-02-07T12:19:46.566Z,7.87
2019-02-07T12:22:14.810Z,7.30
2019-02-07T12:24:55.149Z,6.27
2019-02-07T12:27:23.584Z,7.03
2019-02-07T12:29:51.707Z,6.40
2019-02-07T12:32:25.696Z,6.37
2019-02-07T12:35:13.815Z,6.00
2019-02-07T12:37:41.965Z,6.93
2019-02-07T12:40:13.066Z,6.80
2019-02-07T12:42:44.107Z,7.93
2019-02-07T12:45:27.550Z,7.27
2019-02-07T12:48:02.164Z,7.03
2019-02-07T12:50:47.080Z,6.57
2019-02-07T12:53:24.193Z,6.37
2019-02-07T12:56:07.290Z,7.40
2019-02-07T12:58:35.416Z,7.43
2019-02-07T13:01:06.148Z,6.77
2019-02-07T13:03:37.412Z,7.60
2019-02-07T13:06:14.707Z,7.47
2019-02-07T13:08:49.061Z,7.10
2019-02-07T13:11:20.022Z,7.17
2019-02-07T13:13:56.906Z,6.60
2019-02-07T13:16:24.936Z,7.83
2019-02-07T13:19:05.015Z,6.93
2019-02-07T13:21:42.213Z,7.87
2019-02-07T13:24:25.593Z,7.57
2019-02-07T13:26:53.713Z,6.37
2019-02-07T13:29:26.745Z,7.67
2019-02-07T13:32:11.799Z,6.90
2019-02-07T13:34:39.856Z,8.73
2019-02-07T13:37:08.081Z,7.93
2019-02-07T13:39:48.412Z,7.80
2019-02-07T13:42:17.527Z,7.17
2019-02-07T13:44:48.257Z,8.07
2019-02-07T13:47:33.199Z,8.03
2019-02-07T13:50:01.596Z,7.90
2019-02-07T13:52:32.726Z,8.03
2019-02-07T13:55:17.350Z,8.80
2019-02-07T13:57:54.558Z,7.97
2019-02-07T14:00:39.291Z,8.37
2019-02-07T14:03:19.896Z,8.13
2019-02-07T14:05:48.264Z,8.33
2019-02-07T14:08:25.947Z,7.33
2019-02-07T14:10:54.035Z,7.77
2019-02-07T14:13:22.444Z,8.60
2019-02-07T14:16:05.516Z,8.70
2019-02-07T14:18:53.471Z,7.07
2019-02-07T14:21:24.195Z,8.10
2019-02-07T14:24:09.389Z,9.03
2019-02-07T14:26:44.242Z,8.07
2019-02-07T14:29:12.823Z,8.00
2019-02-07T14:31:43.559Z,7.77
2019-02-07T14:34:11.753Z,8.90
2019-02-07T14:36:39.887Z,10.03
2019-02-07T14:39:21.410Z,9.17
2019-02-07T14:42:06.149Z,8.43
2019-02-07T14:44:46.460Z,8.63
2019-02-07T14:47:12.631Z,8.83
2019-02-07T14:49:38.872Z,9.73
2019-02-07T14:52:05.543Z,8.50
2019-02-07T14:54:31.767Z,7.87
2019-02-07T14:56:57.926Z,8.30
2019-02-07T14:59:24.719Z,7.83
2019-02-07T15:01:50.998Z,7.87
2019-02-07T15:04:17.580Z,7.43
2019-02-07T15:06:44.625Z,7.93
2019-02-07T15:09:13.556Z,8.23
2019-02-07T15:11:40.617Z,6.63
2019-02-07T15:14:07.054Z,7.47
2019-02-07T15:16:33.478Z,8.33
2019-02-07T15:18:59.710Z,7.23
2019-02-07T15:21:26.029Z,7.97
2019-02-07T15:23:52.597Z,8.23
2019-02-07T15:26:18.745Z,7.27
2019-02-07T15:28:45.307Z,7.63
2019-02-07T15:31:11.540Z,8.67
2019-02-07T15:33:37.732Z,8.17
2019-02-07T15:36:07.816Z,7.83
2019-02-07T15:38:33.977Z,8.17
2019-02-07T15:41:00.268Z,7.47
2019-02-07T15:43:26.419Z,7.17
2019-02-07T15:45:53.701Z,8.03
2019-02-07T15:48:19.991Z,8.27
2019-02-07T15:50:46.330Z,7.47
2019-02-07T15:53:12.767Z,7.87
2019-02-07T15:55:38.976Z,7.40
2019-02-07T15:58:05.234Z,8.10
2019-02-07T16:00:36.248Z,8.30
2019-02-07T16:03:05.925Z,7.10
2019-02-07T16:05:32.437Z,8.63
2019-02-07T16:07:58.584Z,7.30
2019-02-07T16:10:25.099Z,8.37
2019-02-07T16:12:51.260Z,8.87
2019-02-07T16:15:17.568Z,7.97
2019-02-07T16:17:44.035Z,8.10
2019-02-07T16:20:17.789Z,7.50
2019-02-07T16:22:44.544Z,8.50
2019-02-07T16:25:16.567Z,8.47
2019-02-07T16:27:43.062Z,8.37
2019-02-07T16:30:15.799Z,8.63
2019-02-07T16:32:42.201Z,7.33
2019-02-07T16:35:11.358Z,8.57
2019-02-07T16:37:37.836Z,8.27
2019-02-07T16:40:09.300Z,8.13
2019-02-07T16:42:35.544Z,7.87
2019-02-07T16:45:05.895Z,7.30
2019-02-07T16:47:32.099Z,9.03
2019-02-07T16:49:58.435Z,7.83
2019-02-07T16:52:24.630Z,7.13
2019-02-07T16:54:51.354Z,9.20
2019-02-07T16:57:17.546Z,8.37
2019-02-07T16:59:43.862Z,8.07
2019-02-07T17:02:10.122Z,8.73
2019-02-07T17:04:36.272Z,8.87
2019-02-07T17:07:02.743Z,7.67
2019-02-07T17:09:31.130Z,7.73
2019-02-07T17:11:57.332Z,8.27
2019-02-07T17:14:23.933Z,8.13
2019-02-07T17:16:50.116Z,8.13
2019-02-07T17:19:16.293Z,8.57
2019-02-07T17:21:42.542Z,7.80
2019-02-07T17:24:08.705Z,8.53
2019-02-07T17:26:34.926Z,8.23
2019-02-07T17:29:01.081Z,9.07
2019-02-07T17:31:27.409Z,8.97
2019-02-07T17:33:53.900Z,8.57
2019-02-07T17:36:20.440Z,9.30
2019-02-07T17:38:46.772Z,9.13
2019-02-07T17:41:13.111Z,8.67
2019-02-07T17:43:39.375Z,8.63
2019-02-07T17:46:05.638Z,9.73
2019-02-07T17:48:31.834Z,9.13
2019-02-07T17:50:58.077Z,9.00
2019-02-07T17:53:24.605Z,8.73
2019-02-07T17:55:51.233Z,8.57
2019-02-07T17:58:17.398Z,9.23
2019-02-07T18:00:56.797Z,8.47
2019-02-07T18:03:23.257Z,7.97
2019-02-07T18:05:49.515Z,8.73
2019-02-07T18:08:16.107Z,9.37
2019-02-07T18:10:42.425Z,8.97
2019-02-07T18:13:08.794Z,9.03
2019-02-07T18:15:34.953Z,8.57
2019-02-07T18:18:01.184Z,8.97
2019-02-07T18:20:27.561Z,8.80
2019-02-07T18:22:54.022Z,9.60
2019-02-07T18:25:20.253Z,9.07
2019-02-07T18:27:46.484Z,8.87
2019-02-07T18:30:20.649Z,8.83
2019-02-07T18:32:46.998Z,9.27
2019-02-07T18:35:14.994Z,10.03
2019-02-07T18:37:41.395Z,9.30
2019-02-07T18:40:16.045Z,9.73
2019-02-07T18:42:43.218Z,10.07
2019-02-07T18:45:16.116Z,9.93
2019-02-07T18:47:42.791Z,9.20
2019-02-07T18:50:26.459Z,8.70
2019-02-07T18:52:52.857Z,9.73
2019-02-07T18:55:19.022Z,8.77
2019-02-07T18:57:45.230Z,8.40
2019-02-07T19:00:22.278Z,9.67
2019-02-07T19:02:50.248Z,8.97
2019-02-07T19:05:19.727Z,9.43
2019-02-07T19:07:46.099Z,10.37
2019-02-07T19:10:36.833Z,8.97
2019-02-07T19:13:03.974Z,10.77
2019-02-07T19:15:50.228Z,10.13
2019-02-07T19:18:16.427Z,9.87
2019-02-07T19:20:42.733Z,11.33
2019-02-07T19:23:08.941Z,10.67
2019-02-07T19:25:35.573Z,9.50
2019-02-07T19:28:04.192Z,9.37
2019-02-07T19:30:32.070Z,10.20
2019-02-07T19:32:59.017Z,10.37
2019-02-07T19:35:25.301Z,10.10
2019-02-07T19:37:51.861Z,9.77
2019-02-07T19:40:19.725Z,9.43
2019-02-07T19:42:45.988Z,9.47
2019-02-07T19:45:16.662Z,10.13
2019-02-07T19:47:42.887Z,9.57
2019-02-07T19:50:13.573Z,9.77
2019-02-07T19:52:40.018Z,9.37
2019-02-07T19:55:11.022Z,10.10
2019-02-07T19:57:37.261Z,10.07
2019-02-07T20:00:15.330Z,10.00
2019-02-07T20:02:41.864Z,9.07
2019-02-07T20:05:09.854Z,10.57
2019-02-07T20:07:36.059Z,10.57
2019-02-07T20:10:15.556Z,10.83
2019-02-07T20:12:42.590Z,10.30
2019-02-07T20:15:20.288Z,10.47
2019-02-07T20:17:46.789Z,10.03
2019-02-07T20:20:15.122Z,10.83
2019-02-07T20:22:41.624Z,9.77
2019-02-07T20:25:10.986Z,9.93
2019-02-07T20:27:37.367Z,10.23
2019-02-07T20:30:17.558Z,10.50
2019-02-07T20:32:43.912Z,10.07
2019-02-07T20:35:11.583Z,9.60
2019-02-07T20:37:37.856Z,9.47
2019-02-07T20:40:09.224Z,9.93
2019-02-07T20:42:35.536Z,10.47
2019-02-07T20:45:02.036Z,11.00
2019-02-07T20:47:28.552Z,10.43
2019-02-07T20:49:55.141Z,11.30
2019-02-07T20:52:27.090Z,9.73
2019-02-07T20:54:49.458Z,10.33
2019-02-07T20:57:16.080Z,11.13
2019-02-07T20:59:42.318Z,11.37
2019-02-07T21:02:08.859Z,10.30
2019-02-07T21:04:35.543Z,12.37
2019-02-07T21:07:03.240Z,11.83
2019-02-07T21:09:29.914Z,10.60
2019-02-07T21:11:56.389Z,11.20
2019-02-07T21:14:22.908Z,13.80
2019-02-07T21:16:49.093Z,11.07
2019-02-07T21:19:15.339Z,12.37
2019-02-07T21:21:41.510Z,11.07
2019-02-07T21:24:08.147Z,11.40
2019-02-07T21:26:34.316Z,12.13
2019-02-07T21:29:00.549Z,11.17
2019-02-07T21:31:26.754Z,10.60
2019-02-07T21:33:53.362Z,10.83
2019-02-07T21:36:19.861Z,9.90
2019-02-07T21:38:46.124Z,11.67
2019-02-07T21:41:12.423Z,11.03
2019-02-07T21:43:38.634Z,11.10
2019-02-07T21:46:04.810Z,11.50
2019-02-07T21:48:31.100Z,11.13
2019-02-07T21:50:57.273Z,11.13
2019-02-07T21:53:23.549Z,10.50
2019-02-07T21:55:49.721Z,11.83
2019-02-07T21:58:16.087Z,10.93
2019-02-07T22:00:44.933Z,11.00
2019-02-07T22:03:12.335Z,11.80
2019-02-07T22:05:39.053Z,11.63
2019-02-07T22:08:06.670Z,11.33
2019-02-07T22:10:33.025Z,11.20
2019-02-07T22:12:59.380Z,11.70
2019-02-07T22:15:26.803Z,11.50
2019-02-07T22:17:53.083Z,11.97
2019-02-07T22:20:27.897Z,11.33
2019-02-07T22:22:57.285Z,11.80
2019-02-07T22:25:23.551Z,11.83
2019-02-07T22:27:50.110Z,12.03
2019-02-07T22:30:30.330Z,10.87
2019-02-07T22:32:57.110Z,11.33
2019-02-07T22:35:23.474Z,10.97
2019-02-07T22:37:49.719Z,11.83
2019-02-07T22:40:19.299Z,11.60
2019-02-07T22:42:48.027Z,10.93
2019-02-07T22:45:17.690Z,11.83
2019-02-07T22:47:44.245Z,10.77
2019-02-07T22:50:17.999Z,9.73
2019-02-07T22:52:44.447Z,11.43
2019-02-07T22:55:11.422Z,11.33
2019-02-07T22:57:37.830Z,11.40
2019-02-07T23:00:37.299Z,12.83
2019-02-07T23:03:23.072Z,12.77
2019-02-07T23:05:49.261Z,11.47
2019-02-07T23:08:15.569Z,11.20
2019-02-07T23:10:42.152Z,9.73
2019-02-07T23:13:09.090Z,12.67
2019-02-07T23:15:35.575Z,14.33
2019-02-07T23:18:02.739Z,11.73
2019-02-07T23:20:35.020Z,13.83
2019-02-07T23:23:05.507Z,12.50
2019-02-07T23:25:31.802Z,11.90
2019-02-07T23:27:58.501Z,12.97
2019-02-07T23:30:24.678Z,10.10
2019-02-07T23:32:50.872Z,11.70
2019-02-07T23:35:17.065Z,12.57
2019-02-07T23:37:43.493Z,13.53
2019-02-07T23:40:16.392Z,11.10
2019-02-07T23:42:42.985Z,11.20
2019-02-07T23:45:13.366Z,12.83
2019-02-07T23:47:39.611Z,11.20
2019-02-07T23:50:09.175Z,11.70
2019-02-07T23:52:35.330Z,11.23
2019-02-07T23:55:01.724Z,12.23
2019-02-07T23:57:27.877Z,12.80
2019-02-07T23:59:54.059Z,13.13
